Ride Results

Mil-Lel Easter Parade (25-03-2016)
Ride distance: 80.0 km

Outcomes - Mil-Lel Easter Parade (25-03-2016)
Division No. of Entries Retired / DNE Completed Withdrawn Ineligible V/O Percentage Completed
HW 5 - 3 1 - 1 60.00%
MW 16 - 15 1 - - 93.75%
LW 17 - 14 - - 3 82.35%
JN 2 - 2 - - - 100.00%
Totals 40 - 34 2 - 4 85.00%
Results - Mil-Lel Easter Parade (25-03-2016)
No. Rider Horse Place Time Leg Speeds Total
Km/Hr
H/R bpm
Heavyweight
150 Jody Smith Tarjo Ace of Hearts 1 (BC) 6:33:00 12.9, 11.5 12.21 37, 41, 51 (Avg:46)
113 Rachael Barnett Shady 2 7:22:00 12.1, 9.7 10.86 32, 40, 53 (Avg:46)
114 Daniel Stoneman Castlebar Goblin 3 8:06:00 10.3, 9.4 9.88 42, 48, 48 (Avg:48)
311 Tarrant Smith Castlebar Temeraire Lame L2 0:00:00 12.9, 18.1 - 36, 44, 60 (Avg:52)
268 Lainie Ray Razorback Prince Charming Withdrawn L1 0:00:00 - - 33, 49 (Avg:49)
Middleweight
155 Karen Alderton Zaki 1 (BC) 4:36:00 18.1, 16.6 17.39 32, 44, 50 (Avg:47)
44 Julie White Tarkhim Shar Bastille 1 4:36:00 18.1, 16.6 17.39 36, 48, 59 (Avg:53)
232 Jodie Luck Lindall Alabaska 3 5:06:00 17.2, 14.3 15.69 34, 52, 52 (Avg:52)
28 Amily Daw Brechenridge Bethany 4 5:58:00 13.7, 13.0 13.41 28, 47, 46 (Avg:46)
95 Stella Harbison Willowstar Bay-Sil 4 5:58:00 13.7, 13.0 13.41 32, 42, 39 (Avg:40)
180 Melanie Scott Devious Suni Desert Warrior 6 6:34:00 12.5, 11.8 12.18 32, 47, 50 (Avg:48)
89 Sheryl Herbert Krishlah Maleeka 7 6:36:00 12.9, 11.4 12.12 39, 47, 56 (Avg:51)
v49 Jessica Remfry Music Maker 7 6:36:00 12.9, 11.4 12.12 40, 45, 57 (Avg:51)
273 Georgie Hart Musical Gully Bosanova 9 6:41:00 11.9, 11.9 11.97 32, 48, 56 (Avg:52)
8283 Naomi Leavesley Tunamara Indiana 9 6:41:00 12.9, 11.1 11.97 48, 50, 53 (Avg:51)
300 Emma Kirby Springfield Park Stellah 11 7:07:00 12.6, 10.0 11.24 36, 40, 41 (Avg:40)
295 Rebecca Jeffrey Kalimnah Farm Flynn 12 7:44:00 11.4, 9.4 10.34 42, 53, 59 (Avg:56)
99 Nicole Porter Challs Charm 13 7:49:00 11.4, 9.2 10.23 32, 51, 57 (Avg:54)
68 Helen Harvey Devious Hot Rod 14 8:03:00 10.7, 9.2 9.94 32, 47, 48 (Avg:47)
293 Daniel Noble Springridge Rosevelt 15 8:30:00 9.9, 8.9 9.41 46, 40, 38 (Avg:39)
2081 Dani Oniszk Elysian Diamond Spirit Withdrawn L2 0:00:00 - - 39, 44, 44 (Avg:44)
Lightweight
161 Shannon Decker Lynx El Rimahz 1 6:05:00 13.1, 13.1 13.15 46, 49, 59 (Avg:54)
v11 Rohan Stanes Flying Circus Ring Master 1 (BC) 6:05:00 13.1, 13.1 13.15 36, 28, 45 (Avg:36)
112 Rebecca Stevens Flying Circus Showtime 1 6:05:00 13.1, 13.1 13.15 41, 46, 49 (Avg:47)
110 Shannon Cossor Castlebar Tamana 4 6:16:00 12.3, 13.2 12.77 44, 41, 51 (Avg:46)
86 Rose Ross Aloha Fabius 5 6:34:00 12.5, 11.8 12.18 33, 49, 47 (Avg:48)
116 Jessica Saxon-Burns Rafeeq 6 6:41:00 11.9, 11.9 11.97 29, 43, 52 (Avg:47)
278 Gina Thompson Kato 6 6:41:00 11.9, 11.9 11.97 35, 47, 52 (Avg:49)
106 Rebecca Williamson Cougar Swan Chiron 6 6:41:00 12.9, 11.1 11.97 40, 43, 51 (Avg:47)
87 Renee Henry Cadenza Supernatural 9 7:06:00 11.6, 10.9 11.27 28, 42, 47 (Avg:44)
183 Nicky Robinson Tubbarubba Josephine 10 7:07:00 11.9, 10.5 11.24 35, 47, 49 (Avg:48)
168 Jessica Aistrope Aqaba Signette 11 7:22:00 12.1, 9.7 10.86 38, 50, 54 (Avg:52)
230 Rebecca Stoneman Pioneer Park Talieb 12 8:06:00 10.3, 9.4 9.88 40, 44, 43 (Avg:43)
288 Fiona Shearman Tom-May Mel-Bar Prince 13 8:08:00 11.0, 8.8 9.84 30, 45, 44 (Avg:44)
91 Kim Noble Mizzi Couger 14 8:30:00 9.8, 8.9 9.41 36, 38, 45 (Avg:41)
250 Kerry Alderton Kalimnah Farm Mr Walker Lame L2 0:00:00 11.0, 9.0 - 41, 43, 47 (Avg:45)
270 Cherie Causby Brent Park Maha Arjuna Back L2 0:00:00 8.9, 9.5 - 42, 46, 56 (Avg:51)
118 Tracy-Lee Feltrin Kelkette Park Silver Icon Lame L1 0:00:00 12.1 - 36, 47 (Avg:47)
Junior
63 Jayna Bright Meldana Madden 1 (BC) 6:21:00 14.0, 11.4 12.60 35, 46, 47 (Avg:46)
292 Alison Noble Roswick Dilhurst 2 8:30:00 9.9, 8.9 9.41 33, 38, 44 (Avg:41)